Time;durP1;ratioP1;P1;durP2;ratioP2;P2;SDS_P1;SDS_P2;PMS_P1;PMS_P2;Temp;Humidity;BMP_temperature;BMP_pressure;BME280_temperature;BME280_humidity;BME280_pressure;Samples;Min_cycle;Max_cycle;Signal;HPM_P1;HPM_P2
2022/01/10 00:00:31;;;;;;;14.03;7.93;;;5.50;99.90;;;;;;5047439;28;20229;-71
2022/01/10 00:02:59;;;;;;;12.03;7.47;;;5.50;99.90;;;;;;5062349;28;20285;-68
2022/01/10 00:05:24;;;;;;;14.60;7.53;;;5.40;99.90;;;;;;5054079;28;20198;-66
2022/01/10 00:07:50;;;;;;;13.87;7.77;;;5.40;99.90;;;;;;5064428;28;20366;-67
2022/01/10 00:10:17;;;;;;;19.47;8.13;;;5.30;99.90;;;;;;5053798;28;20217;-66
2022/01/10 00:12:43;;;;;;;12.57;8.03;;;5.30;99.90;;;;;;5050681;28;20281;-66
2022/01/10 00:15:10;;;;;;;17.67;9.07;;;5.20;99.90;;;;;;5056165;28;20336;-67
2022/01/10 00:17:38;;;;;;;9.67;7.63;;;5.40;99.90;;;;;;5060444;28;20229;-66
2022/01/10 00:20:15;;;;;;;12.70;8.10;;;5.30;99.90;;;;;;5055301;28;20213;-67
2022/01/10 00:22:45;;;;;;;15.07;7.13;;;5.20;99.90;;;;;;5054452;28;20260;-68
2022/01/10 00:25:13;;;;;;;17.13;9.10;;;5.20;99.90;;;;;;5060379;28;20271;-67
2022/01/10 00:27:38;;;;;;;17.83;8.27;;;5.30;99.90;;;;;;5055028;28;20202;-67
2022/01/10 00:30:04;;;;;;;16.73;7.87;;;5.10;99.90;;;;;;5055414;28;20209;-65
2022/01/10 00:32:30;;;;;;;10.93;8.03;;;5.10;99.90;;;;;;5057726;28;20194;-66
2022/01/10 00:34:55;;;;;;;16.43;7.43;;;5.10;99.90;;;;;;5061358;28;20542;-65
2022/01/10 00:37:21;;;;;;;11.27;8.10;;;5.00;99.90;;;;;;5062697;28;20205;-66
2022/01/10 00:39:48;;;;;;;12.63;7.60;;;5.00;99.90;;;;;;5054318;28;20790;-65
2022/01/10 00:42:14;;;;;;;14.73;8.23;;;4.90;99.90;;;;;;5063654;28;20197;-65
2022/01/10 00:44:45;;;;;;;15.63;8.33;;;5.00;99.90;;;;;;5053838;28;20202;-66
2022/01/10 00:47:11;;;;;;;13.03;8.43;;;4.90;99.90;;;;;;5049795;28;20198;-66
2022/01/10 00:49:36;;;;;;;13.50;7.83;;;5.00;99.90;;;;;;5064438;28;20202;-66
2022/01/10 00:52:03;;;;;;;11.63;7.50;;;4.90;99.90;;;;;;5059533;28;20244;-67
2022/01/10 00:54:28;;;;;;;13.90;9.07;;;5.00;99.90;;;;;;5048028;28;20198;-67
2022/01/10 00:56:54;;;;;;;12.87;8.30;;;5.00;99.90;;;;;;5049444;28;20187;-66
2022/01/10 00:59:19;;;;;;;15.27;7.67;;;5.00;99.90;;;;;;5057925;28;20205;-66
2022/01/10 01:01:45;;;;;;;9.90;7.93;;;5.00;99.90;;;;;;5054440;28;20179;-65
2022/01/10 01:04:11;;;;;;;10.53;7.70;;;5.10;99.90;;;;;;5061834;28;20732;-65
2022/01/10 01:06:37;;;;;;;12.27;7.20;;;5.00;99.90;;;;;;5064857;28;20174;-66
2022/01/10 01:09:07;;;;;;;15.37;7.50;;;5.00;99.90;;;;;;5058014;28;20551;-67
2022/01/10 01:14:36;;;;;;;12.90;8.33;;;5.00;99.90;;;;;;5060639;28;20346;-67
2022/01/10 01:17:32;;;;;;;16.03;8.90;;;5.00;99.90;;;;;;5059249;28;20219;-66
2022/01/10 01:25:10;;;;;;;15.20;8.50;;;5.00;99.90;;;;;;5052673;28;20255;-65
2022/01/10 01:27:37;;;;;;;17.83;7.47;;;5.00;99.90;;;;;;5063907;28;20206;-65
2022/01/10 01:30:04;;;;;;;16.13;7.63;;;5.00;99.90;;;;;;5067777;28;20201;-64
2022/01/10 01:32:30;;;;;;;15.13;8.73;;;5.10;99.90;;;;;;5055177;28;20253;-62
2022/01/10 01:35:02;;;;;;;16.13;7.87;;;5.10;99.90;;;;;;5067307;28;20668;-62
2022/01/10 01:37:27;;;;;;;14.30;7.73;;;5.10;99.90;;;;;;5045723;28;20195;-62
2022/01/10 01:39:53;;;;;;;13.03;8.20;;;5.10;99.90;;;;;;5066985;28;20193;-63
2022/01/10 01:42:42;;;;;;;16.57;8.37;;;5.10;99.90;;;;;;5061831;28;21078;-64
2022/01/10 01:45:08;;;;;;;13.47;7.67;;;5.10;99.90;;;;;;5057312;28;20206;-63
2022/01/10 01:47:33;;;;;;;14.33;7.53;;;5.10;99.90;;;;;;5053373;28;20293;-64
2022/01/10 01:50:00;;;;;;;10.00;7.43;;;5.10;99.90;;;;;;5062029;28;20286;-64
2022/01/10 01:52:27;;;;;;;19.63;8.20;;;5.00;99.90;;;;;;5054485;28;20203;-64
2022/01/10 01:54:53;;;;;;;17.30;8.17;;;4.90;99.90;;;;;;5067451;28;20236;-65
2022/01/10 01:57:19;;;;;;;14.13;7.13;;;4.90;99.90;;;;;;5065481;28;20202;-63
2022/01/10 01:59:45;;;;;;;15.30;7.70;;;5.00;99.90;;;;;;5067657;28;20210;-62
2022/01/10 02:02:11;;;;;;;15.83;8.17;;;5.00;99.90;;;;;;5052940;28;20198;-62
2022/01/10 02:04:36;;;;;;;14.87;7.60;;;5.00;99.90;;;;;;5055835;28;20213;-63
2022/01/10 02:07:02;;;;;;;16.43;8.57;;;5.00;99.90;;;;;;5052417;28;20547;-62
2022/01/10 02:09:28;;;;;;;14.63;8.17;;;5.00;99.90;;;;;;5054947;28;20210;-65
2022/01/10 02:11:53;;;;;;;14.33;7.47;;;5.00;99.90;;;;;;5054219;28;20226;-62
2022/01/10 02:14:19;;;;;;;13.93;6.97;;;5.00;99.90;;;;;;5056585;28;20232;-64
2022/01/10 02:16:52;;;;;;;13.97;7.23;;;5.00;99.90;;;;;;5056521;28;20224;-62
2022/01/10 02:19:18;;;;;;;12.33;7.50;;;5.00;99.90;;;;;;5059082;28;20192;-62
2022/01/10 02:21:44;;;;;;;21.87;9.40;;;5.00;99.90;;;;;;5055068;28;20198;-63
2022/01/10 02:24:09;;;;;;;12.47;7.63;;;5.00;99.90;;;;;;5055714;28;20221;-63
2022/01/10 02:26:37;;;;;;;11.17;7.13;;;5.10;99.90;;;;;;5053086;28;20217;-63
2022/01/10 02:29:04;;;;;;;13.90;7.57;;;5.10;99.90;;;;;;5053276;28;20202;-68
2022/01/10 02:31:34;;;;;;;9.87;7.23;;;5.10;99.90;;;;;;5053603;28;20640;-64
2022/01/10 02:33:59;;;;;;;13.27;7.50;;;5.20;99.90;;;;;;5055311;28;20715;-63
2022/01/10 02:36:26;;;;;;;19.27;8.37;;;5.10;99.90;;;;;;5048196;28;20226;-62
2022/01/10 02:38:54;;;;;;;17.10;8.00;;;5.20;99.90;;;;;;5057679;28;20190;-62
2022/01/10 02:41:28;;;;;;;18.93;7.40;;;5.10;99.90;;;;;;5052138;28;20247;-62
2022/01/10 02:43:55;;;;;;;16.53;7.37;;;5.20;99.90;;;;;;5057165;28;20206;-64
2022/01/10 02:46:21;;;;;;;15.67;6.93;;;5.20;99.90;;;;;;5054286;28;20818;-61
2022/01/10 02:48:46;;;;;;;14.27;6.73;;;5.10;99.90;;;;;;5066275;28;20726;-63
2022/01/10 02:51:12;;;;;;;16.47;7.33;;;5.10;99.90;;;;;;5062045;28;20267;-63
2022/01/10 02:53:38;;;;;;;15.43;7.90;;;5.20;99.90;;;;;;5066084;28;20658;-63
2022/01/10 02:56:04;;;;;;;18.20;7.47;;;5.20;99.90;;;;;;5064115;28;20205;-63
2022/01/10 02:58:29;;;;;;;11.57;7.13;;;5.20;99.90;;;;;;5050161;28;20187;-62
2022/01/10 03:00:55;;;;;;;10.97;6.30;;;5.20;99.90;;;;;;5064437;28;20814;-62
2022/01/10 03:03:20;;;;;;;16.70;8.27;;;5.30;99.90;;;;;;5058655;28;20192;-62
2022/01/10 03:05:46;;;;;;;15.53;7.70;;;5.30;99.90;;;;;;5058805;28;20249;-62
2022/01/10 03:08:11;;;;;;;16.90;7.23;;;5.30;99.90;;;;;;5056236;28;20620;-62
2022/01/10 03:10:37;;;;;;;14.37;7.57;;;5.30;99.90;;;;;;5064003;28;20194;-62
2022/01/10 03:13:03;;;;;;;13.97;6.90;;;5.30;99.90;;;;;;5052488;28;20187;-63
2022/01/10 03:15:29;;;;;;;12.57;7.17;;;5.30;99.90;;;;;;5061451;28;20241;-62
2022/01/10 03:17:54;;;;;;;9.73;7.27;;;5.30;99.90;;;;;;5059118;28;20194;-68
2022/01/10 03:20:22;;;;;;;13.93;7.07;;;5.30;99.90;;;;;;5062912;28;20198;-62
2022/01/10 03:22:47;;;;;;;18.40;7.40;;;5.30;99.90;;;;;;5054795;28;20186;-62
2022/01/10 03:25:13;;;;;;;13.67;7.03;;;5.30;99.90;;;;;;5054790;28;20543;-62
2022/01/10 03:27:38;;;;;;;14.23;6.67;;;5.30;99.90;;;;;;5054222;28;20202;-61
2022/01/10 03:30:05;;;;;;;11.67;6.67;;;5.40;99.90;;;;;;5065640;28;20194;-61
2022/01/10 03:32:30;;;;;;;13.40;7.03;;;5.40;99.90;;;;;;5061623;28;20190;-61
2022/01/10 03:34:57;;;;;;;13.13;6.87;;;5.30;99.90;;;;;;5054438;28;20273;-61
2022/01/10 03:37:23;;;;;;;11.13;7.30;;;5.30;99.90;;;;;;5063720;28;20202;-61
2022/01/10 03:39:49;;;;;;;12.30;6.70;;;5.30;99.90;;;;;;5049107;28;20252;-61
2022/01/10 03:42:14;;;;;;;11.93;6.47;;;5.30;99.90;;;;;;5062878;28;20674;-61
2022/01/10 03:44:40;;;;;;;9.13;6.80;;;5.40;99.90;;;;;;5065849;28;20209;-61
2022/01/10 03:47:06;;;;;;;12.33;6.47;;;5.30;99.90;;;;;;5063284;28;20273;-61
2022/01/10 03:49:31;;;;;;;11.63;7.47;;;5.30;99.90;;;;;;5047962;28;20202;-61
2022/01/10 03:51:57;;;;;;;9.67;6.43;;;5.20;99.90;;;;;;5060241;28;20202;-61
2022/01/10 03:54:23;;;;;;;13.90;7.70;;;5.20;99.90;;;;;;5053802;28;20201;-61
2022/01/10 03:56:48;;;;;;;11.67;6.67;;;5.20;99.90;;;;;;5061798;28;20190;-62
2022/01/10 03:59:14;;;;;;;11.80;7.83;;;5.40;99.90;;;;;;5054651;28;20281;-62
2022/01/10 04:01:40;;;;;;;11.90;7.27;;;5.30;99.90;;;;;;5063476;28;20193;-62
2022/01/10 04:04:08;;;;;;;12.03;6.53;;;5.40;99.90;;;;;;5059636;28;20244;-62
2022/01/10 04:06:34;;;;;;;18.27;7.47;;;5.40;99.90;;;;;;5064352;28;20190;-62
2022/01/10 04:09:00;;;;;;;17.77;7.40;;;5.30;99.90;;;;;;5051818;28;20218;-61
2022/01/10 04:11:26;;;;;;;11.17;6.80;;;5.20;99.90;;;;;;5064406;28;20250;-62
2022/01/10 04:13:52;;;;;;;15.03;7.50;;;5.10;99.90;;;;;;5048868;28;20198;-62
2022/01/10 04:16:17;;;;;;;12.67;7.70;;;5.10;99.90;;;;;;5064535;28;20214;-62
2022/01/10 04:18:42;;;;;;;15.07;7.63;;;5.10;99.90;;;;;;5048588;28;20291;-62
2022/01/10 04:21:08;;;;;;;16.07;7.30;;;5.10;99.90;;;;;;5062721;28;20194;-62
2022/01/10 04:23:34;;;;;;;12.07;7.03;;;5.10;99.90;;;;;;5051642;28;20202;-62
2022/01/10 04:26:00;;;;;;;16.20;7.30;;;5.10;99.90;;;;;;5054754;28;20248;-63
2022/01/10 04:28:25;;;;;;;11.73;7.17;;;5.20;99.90;;;;;;5053979;28;20214;-63
2022/01/10 04:30:51;;;;;;;12.17;7.97;;;5.20;99.90;;;;;;5056234;28;20183;-64
2022/01/10 04:33:18;;;;;;;11.03;7.23;;;5.30;99.90;;;;;;5059735;28;20206;-63
2022/01/10 04:35:45;;;;;;;15.33;7.70;;;5.30;99.90;;;;;;5063934;28;20293;-62
2022/01/10 04:38:11;;;;;;;11.83;7.10;;;5.20;99.90;;;;;;5052112;28;20685;-63
2022/01/10 04:40:37;;;;;;;7.40;6.67;;;5.20;99.90;;;;;;5064372;28;20283;-61
2022/01/10 04:43:02;;;;;;;12.87;6.70;;;5.10;99.90;;;;;;5056801;28;20293;-61
2022/01/10 04:45:28;;;;;;;19.03;7.83;;;5.10;99.90;;;;;;5064371;28;20190;-61
2022/01/10 04:47:53;;;;;;;13.80;7.20;;;5.10;99.90;;;;;;5062336;28;20593;-61
2022/01/10 04:52:51;;;;;;;11.63;7.27;;;5.10;99.90;;;;;;5062314;28;20202;-62
2022/01/10 04:55:19;;;;;;;14.53;7.90;;;5.00;99.90;;;;;;5064264;28;20221;-61
2022/01/10 04:57:45;;;;;;;8.07;6.63;;;5.00;99.90;;;;;;5053732;28;20203;-61
2022/01/10 05:00:14;;;;;;;10.37;7.23;;;5.10;99.90;;;;;;5057311;28;20226;-62
2022/01/10 05:02:43;;;;;;;11.77;7.53;;;5.10;99.90;;;;;;5062370;28;20190;-61
2022/01/10 05:05:08;;;;;;;17.73;8.60;;;5.10;99.90;;;;;;5064322;28;20247;-61
2022/01/10 05:07:34;;;;;;;12.87;7.63;;;5.10;99.90;;;;;;5062525;28;20190;-61
2022/01/10 05:09:59;;;;;;;17.67;8.00;;;5.20;99.90;;;;;;5047833;28;20215;-61
2022/01/10 05:12:27;;;;;;;11.20;7.67;;;5.10;99.90;;;;;;5056688;28;20205;-61
2022/01/10 05:14:52;;;;;;;12.83;7.50;;;5.10;99.90;;;;;;5056831;28;20188;-62
2022/01/10 05:17:20;;;;;;;17.33;8.87;;;5.10;99.90;;;;;;5062042;28;20275;-62
2022/01/10 05:19:46;;;;;;;14.47;7.93;;;5.10;99.90;;;;;;5061830;28;20222;-62
2022/01/10 05:22:11;;;;;;;12.37;7.47;;;5.10;99.90;;;;;;5062601;28;20674;-61
2022/01/10 05:24:36;;;;;;;13.10;7.20;;;5.10;99.90;;;;;;5064631;28;20638;-62
2022/01/10 05:27:02;;;;;;;11.87;7.47;;;5.10;99.90;;;;;;5059670;28;20206;-62
2022/01/10 05:29:28;;;;;;;20.60;7.83;;;5.00;99.90;;;;;;5055539;28;20211;-62
2022/01/10 05:31:53;;;;;;;12.67;7.10;;;5.00;99.90;;;;;;5059784;28;20538;-62
2022/01/10 05:34:19;;;;;;;16.67;7.90;;;5.00;99.90;;;;;;5055915;28;20181;-62
2022/01/10 05:36:45;;;;;;;19.13;8.40;;;5.00;99.90;;;;;;5061086;28;20206;-62
2022/01/10 05:39:10;;;;;;;12.43;7.63;;;4.90;99.90;;;;;;5051147;28;20182;-61
2022/01/10 05:41:36;;;;;;;10.90;7.30;;;5.00;99.90;;;;;;5062336;28;20217;-62
2022/01/10 05:44:02;;;;;;;13.87;8.37;;;4.90;99.90;;;;;;5049432;28;20305;-62
2022/01/10 05:46:28;;;;;;;15.50;7.87;;;5.10;99.90;;;;;;5063078;28;20190;-62
2022/01/10 05:48:59;;;;;;;14.37;7.23;;;5.00;99.90;;;;;;5053186;28;20750;-62
2022/01/10 05:51:28;;;;;;;15.13;7.43;;;5.00;99.90;;;;;;5067298;28;20198;-62
2022/01/10 05:53:53;;;;;;;8.77;7.43;;;5.00;99.90;;;;;;5057732;28;20211;-62
2022/01/10 05:56:19;;;;;;;20.97;7.83;;;5.00;99.90;;;;;;5063295;28;20558;-61
2022/01/10 05:58:44;;;;;;;10.97;7.53;;;5.00;99.90;;;;;;5062427;28;20591;-62
2022/01/10 06:01:10;;;;;;;15.63;7.60;;;5.10;99.90;;;;;;5066626;28;20685;-61
2022/01/10 06:03:35;;;;;;;18.13;8.83;;;5.20;99.90;;;;;;5051303;28;20681;-61
2022/01/10 06:06:01;;;;;;;9.57;6.77;;;5.20;99.90;;;;;;5066106;28;20198;-62
2022/01/10 06:08:26;;;;;;;10.50;7.87;;;5.20;99.90;;;;;;5054378;28;20229;-62
2022/01/10 06:10:52;;;;;;;13.80;7.63;;;5.10;99.90;;;;;;5061485;28;20197;-61
2022/01/10 06:13:17;;;;;;;14.90;7.30;;;5.10;99.90;;;;;;5054656;28;20248;-62
2022/01/10 06:15:43;;;;;;;13.77;7.93;;;5.10;99.90;;;;;;5066705;28;20226;-62
2022/01/10 06:18:08;;;;;;;10.90;7.77;;;5.10;99.90;;;;;;5056576;28;20250;-62
2022/01/10 06:20:34;;;;;;;11.30;7.03;;;5.10;99.90;;;;;;5065233;28;20198;-63
2022/01/10 06:22:59;;;;;;;22.80;7.80;;;5.10;99.90;;;;;;5054252;28;20673;-62
2022/01/10 06:25:29;;;;;;;19.60;8.43;;;5.20;99.90;;;;;;5067044;28;20279;-62
2022/01/10 06:27:54;;;;;;;13.27;7.40;;;5.30;99.90;;;;;;5064798;28;20236;-63
2022/01/10 06:30:20;;;;;;;13.83;7.20;;;5.30;99.90;;;;;;5066864;28;20275;-62
2022/01/10 06:32:46;;;;;;;12.17;6.80;;;5.30;99.90;;;;;;5064703;28;20210;-63
2022/01/10 06:35:12;;;;;;;15.30;8.07;;;5.30;99.90;;;;;;5059890;28;20190;-62
2022/01/10 06:37:37;;;;;;;12.10;6.17;;;5.20;99.90;;;;;;5064050;28;20198;-62
2022/01/10 06:40:05;;;;;;;9.70;6.43;;;5.30;99.90;;;;;;5056784;28;20658;-62
2022/01/10 06:42:31;;;;;;;12.47;8.03;;;5.30;99.90;;;;;;5063310;28;20198;-63
2022/01/10 06:44:56;;;;;;;11.63;7.80;;;5.20;99.90;;;;;;5055018;28;20213;-63
2022/01/10 06:47:22;;;;;;;11.37;6.83;;;5.20;99.90;;;;;;5063866;28;20210;-62
2022/01/10 06:49:47;;;;;;;14.17;7.53;;;5.20;99.90;;;;;;5054134;28;20766;-62
2022/01/10 06:52:13;;;;;;;16.90;7.73;;;5.20;99.90;;;;;;5059980;28;20238;-62
2022/01/10 06:54:38;;;;;;;21.60;7.57;;;5.20;99.90;;;;;;5059331;28;20206;-62
2022/01/10 06:57:04;;;;;;;10.37;7.37;;;5.20;99.90;;;;;;5063561;28;20194;-62
2022/01/10 06:59:30;;;;;;;9.17;7.23;;;5.20;99.90;;;;;;5057660;28;20190;-62
2022/01/10 07:01:57;;;;;;;15.20;7.13;;;5.20;99.90;;;;;;5056705;28;20304;-63
2022/01/10 07:04:23;;;;;;;13.83;6.90;;;5.20;99.90;;;;;;5063133;28;20190;-63
2022/01/10 07:06:49;;;;;;;15.53;8.07;;;5.20;99.90;;;;;;5064015;28;20229;-63
2022/01/10 07:09:14;;;;;;;15.87;6.73;;;5.20;99.90;;;;;;5066309;28;20210;-62
2022/01/10 07:11:40;;;;;;;12.03;6.90;;;5.20;99.90;;;;;;5058111;28;20199;-62
2022/01/10 07:14:06;;;;;;;10.30;6.53;;;5.20;99.90;;;;;;5060322;28;20195;-61
2022/01/10 07:16:32;;;;;;;12.13;6.73;;;5.20;99.90;;;;;;5065460;28;20230;-62
2022/01/10 07:18:57;;;;;;;11.20;6.90;;;5.20;99.90;;;;;;5045170;28;20203;-63
2022/01/10 07:21:23;;;;;;;15.40;7.50;;;5.10;99.90;;;;;;5065763;28;20546;-61
2022/01/10 07:23:48;;;;;;;9.90;6.67;;;5.10;99.90;;;;;;5053925;28;20209;-63
2022/01/10 07:26:15;;;;;;;11.33;7.17;;;5.00;99.90;;;;;;5065701;28;20409;-63
2022/01/10 07:28:40;;;;;;;10.93;7.03;;;5.00;99.90;;;;;;5049880;28;20238;-63
2022/01/10 07:31:06;;;;;;;21.37;11.67;;;5.00;99.90;;;;;;5065993;28;20679;-62
2022/01/10 07:33:32;;;;;;;13.17;8.33;;;5.00;99.90;;;;;;5053707;28;20206;-63
2022/01/10 07:35:57;;;;;;;10.03;6.63;;;5.00;99.90;;;;;;5064851;28;20202;-63
2022/01/10 07:38:23;;;;;;;12.80;7.30;;;5.10;99.90;;;;;;5063394;28;20301;-62
2022/01/10 07:40:49;;;;;;;13.43;9.47;;;5.00;99.90;;;;;;5065614;28;20197;-63
2022/01/10 07:43:15;;;;;;;17.47;8.50;;;5.10;99.90;;;;;;5051041;28;20374;-64
2022/01/10 07:45:40;;;;;;;17.57;9.17;;;5.00;99.90;;;;;;5064919;28;20202;-63
2022/01/10 07:48:06;;;;;;;14.10;8.17;;;5.00;99.90;;;;;;5054026;28;20242;-63
2022/01/10 07:50:32;;;;;;;12.77;8.63;;;5.10;99.90;;;;;;5065203;28;20656;-63
2022/01/10 07:52:57;;;;;;;14.80;9.03;;;5.10;99.90;;;;;;5052522;28;20672;-63
2022/01/10 07:55:23;;;;;;;14.73;8.80;;;5.10;99.90;;;;;;5064887;28;20186;-63
2022/01/10 07:57:48;;;;;;;13.53;9.40;;;5.20;99.90;;;;;;5053421;28;20319;-62
2022/01/10 08:00:14;;;;;;;14.83;8.17;;;5.20;99.90;;;;;;5064430;28;20612;-63
2022/01/10 08:02:39;;;;;;;17.77;8.63;;;5.20;99.90;;;;;;5055095;28;20191;-63
2022/01/10 08:05:07;;;;;;;18.10;8.70;;;5.20;99.90;;;;;;5064484;28;20196;-63
2022/01/10 08:07:33;;;;;;;14.77;8.10;;;5.20;99.90;;;;;;5056118;28;20201;-63
2022/01/10 08:09:58;;;;;;;20.00;9.00;;;5.20;99.90;;;;;;5061674;28;20214;-64
2022/01/10 08:12:24;;;;;;;18.53;9.00;;;5.20;99.90;;;;;;5056665;28;20191;-63
2022/01/10 08:14:52;;;;;;;20.13;8.70;;;5.20;99.90;;;;;;5056217;28;20182;-63
2022/01/10 08:17:18;;;;;;;20.37;9.47;;;5.20;99.90;;;;;;5057578;28;20569;-63
2022/01/10 08:19:43;;;;;;;14.43;9.57;;;5.30;99.90;;;;;;5057945;28;20213;-64
2022/01/10 08:22:09;;;;;;;16.97;8.97;;;5.30;99.90;;;;;;5063461;28;20292;-64
2022/01/10 08:24:34;;;;;;;20.53;9.23;;;5.20;99.90;;;;;;5065381;28;20174;-63
2022/01/10 08:27:00;;;;;;;13.83;8.37;;;5.10;99.90;;;;;;5060082;28;20981;-63
2022/01/10 08:29:26;;;;;;;18.63;8.80;;;5.10;99.90;;;;;;5053654;28;20652;-63
2022/01/10 08:31:51;;;;;;;13.97;9.30;;;5.10;99.90;;;;;;5062018;28;20187;-63
2022/01/10 08:34:17;;;;;;;14.30;7.97;;;5.10;99.90;;;;;;5053623;28;20183;-62
2022/01/10 08:36:49;;;;;;;12.83;8.40;;;5.10;99.90;;;;;;5062006;28;20198;-62
2022/01/10 08:39:14;;;;;;;23.10;9.23;;;5.10;99.90;;;;;;5044962;28;20838;-61
2022/01/10 08:41:40;;;;;;;16.37;9.60;;;5.10;99.90;;;;;;5053175;28;20285;-62
2022/01/10 08:44:06;;;;;;;12.30;8.43;;;5.00;99.90;;;;;;5049577;28;20531;-62
2022/01/10 08:46:32;;;;;;;14.23;9.10;;;5.00;99.90;;;;;;5064832;28;20190;-62
2022/01/10 08:48:58;;;;;;;17.10;8.57;;;5.10;99.90;;;;;;5043690;28;20268;-62
2022/01/10 08:51:24;;;;;;;18.33;9.07;;;5.10;99.90;;;;;;5064769;28;20183;-62
2022/01/10 08:53:51;;;;;;;12.97;8.30;;;5.10;99.90;;;;;;5055536;28;20198;-62
2022/01/10 08:56:16;;;;;;;16.50;9.33;;;5.10;99.90;;;;;;5063824;28;20194;-62
2022/01/10 08:58:42;;;;;;;14.90;8.03;;;5.20;99.90;;;;;;5046137;28;20207;-62
2022/01/10 09:01:08;;;;;;;15.10;9.03;;;5.20;99.90;;;;;;5061321;28;20194;-63
2022/01/10 09:03:34;;;;;;;15.40;8.43;;;5.10;99.90;;;;;;5051531;28;20191;-62
2022/01/10 09:06:00;;;;;;;16.93;8.90;;;5.10;99.90;;;;;;5057142;28;20256;-62
2022/01/10 09:08:31;;;;;;;16.63;9.93;;;5.20;99.90;;;;;;5049632;28;20748;-63
2022/01/10 09:10:57;;;;;;;17.17;9.60;;;5.20;99.90;;;;;;5053248;28;20313;-64
2022/01/10 09:13:23;;;;;;;14.37;8.70;;;5.20;99.90;;;;;;5052493;28;20198;-62
2022/01/10 09:15:48;;;;;;;15.50;9.60;;;5.20;99.90;;;;;;5055073;28;20569;-62
2022/01/10 09:18:14;;;;;;;13.97;8.40;;;5.20;99.90;;;;;;5051555;28;20202;-62
2022/01/10 09:20:40;;;;;;;15.10;8.73;;;5.20;99.90;;;;;;5053093;28;20198;-62
2022/01/10 09:23:06;;;;;;;16.47;9.50;;;5.20;99.90;;;;;;5051860;28;20205;-63
2022/01/10 09:25:32;;;;;;;12.77;8.47;;;5.30;99.90;;;;;;5054302;28;20194;-63
2022/01/10 09:27:58;;;;;;;16.00;8.73;;;5.30;99.90;;;;;;5056595;28;20749;-61
2022/01/10 09:30:23;;;;;;;17.03;10.07;;;5.30;99.90;;;;;;5058410;28;20201;-62
2022/01/10 09:32:49;;;;;;;14.27;9.27;;;5.30;99.90;;;;;;5056419;28;20210;-64
2022/01/10 09:35:15;;;;;;;17.93;9.20;;;5.30;99.90;;;;;;5058115;28;20237;-64
2022/01/10 09:37:41;;;;;;;20.57;9.50;;;5.40;99.90;;;;;;5054971;28;20652;-64
2022/01/10 09:40:07;;;;;;;23.70;10.13;;;5.30;99.90;;;;;;5059327;28;20275;-62
2022/01/10 09:42:33;;;;;;;16.00;9.97;;;5.30;99.90;;;;;;5054972;28;20316;-63
2022/01/10 09:45:00;;;;;;;18.17;10.60;;;5.40;99.90;;;;;;5058219;28;20201;-62
2022/01/10 09:47:26;;;;;;;16.87;9.10;;;5.40;99.90;;;;;;5056601;28;20207;-62
2022/01/10 09:49:51;;;;;;;18.27;10.10;;;5.40;99.90;;;;;;5056278;28;20839;-62
2022/01/10 09:52:18;;;;;;;16.60;8.40;;;5.40;99.90;;;;;;5053420;28;20249;-63
2022/01/10 09:54:43;;;;;;;17.17;9.30;;;5.50;99.90;;;;;;5056188;28;20175;-61
2022/01/10 09:57:09;;;;;;;14.90;8.53;;;5.50;99.90;;;;;;5054028;28;20198;-62
2022/01/10 09:59:34;;;;;;;13.53;8.80;;;5.50;99.90;;;;;;5058112;28;20183;-63
2022/01/10 10:02:00;;;;;;;12.87;9.03;;;5.50;99.90;;;;;;5051847;28;20198;-62
2022/01/10 10:04:26;;;;;;;16.53;8.97;;;5.50;99.90;;;;;;5055914;28;20209;-62
2022/01/10 10:06:53;;;;;;;12.57;8.07;;;5.60;99.90;;;;;;5062664;28;20190;-62
2022/01/10 10:09:18;;;;;;;17.63;8.93;;;5.60;99.90;;;;;;5053362;28;20323;-63
2022/01/10 10:11:49;;;;;;;12.23;8.77;;;5.60;99.90;;;;;;5060095;28;20647;-64
2022/01/10 10:14:17;;;;;;;15.63;8.73;;;5.60;99.90;;;;;;5058454;28;20186;-69
2022/01/10 10:16:49;;;;;;;19.00;9.83;;;5.80;99.90;;;;;;5064298;28;20222;-71
2022/01/10 10:19:21;;;;;;;17.13;8.83;;;6.10;99.90;;;;;;5052427;28;20591;-66
2022/01/10 10:21:48;;;;;;;18.27;8.73;;;6.40;99.90;;;;;;5058626;28;20218;-67
2022/01/10 10:24:14;;;;;;;20.57;9.67;;;6.50;99.90;;;;;;5055864;28;20198;-68
2022/01/10 10:26:41;;;;;;;18.50;9.17;;;6.60;99.90;;;;;;5062993;28;20665;-68
2022/01/10 10:29:07;;;;;;;19.70;9.07;;;6.60;99.90;;;;;;5052874;28;20237;-68
2022/01/10 10:31:36;;;;;;;12.57;8.57;;;6.50;99.90;;;;;;5057480;28;20306;-68
2022/01/10 10:34:04;;;;;;;13.37;8.07;;;6.50;99.90;;;;;;5053662;28;20194;-68
2022/01/10 10:36:33;;;;;;;15.70;9.13;;;6.60;99.90;;;;;;5054765;28;20203;-68
2022/01/10 10:39:03;;;;;;;18.73;9.17;;;6.70;99.90;;;;;;5055550;28;20328;-68
2022/01/10 10:41:29;;;;;;;18.07;9.43;;;6.80;99.90;;;;;;5056507;28;20226;-67
2022/01/10 10:43:54;;;;;;;16.27;9.47;;;6.80;99.90;;;;;;5056888;28;20275;-69
2022/01/10 10:46:25;;;;;;;15.57;9.33;;;6.60;99.90;;;;;;5064175;28;20239;-68
2022/01/10 10:48:53;;;;;;;17.87;10.43;;;6.50;99.90;;;;;;5051272;28;20294;-68
2022/01/10 10:51:19;;;;;;;15.47;10.30;;;6.50;99.90;;;;;;5057082;28;20245;-67
2022/01/10 10:53:45;;;;;;;20.73;10.73;;;6.50;99.90;;;;;;5053962;28;20702;-68
2022/01/10 10:56:10;;;;;;;14.30;9.57;;;6.60;99.90;;;;;;5060131;28;20191;-70
2022/01/10 10:58:37;;;;;;;19.47;9.77;;;6.70;99.90;;;;;;5049844;28;20203;-69
2022/01/10 11:01:04;;;;;;;17.27;10.20;;;6.60;99.90;;;;;;5065535;28;20190;-69
2022/01/10 11:03:30;;;;;;;20.33;9.33;;;6.60;99.90;;;;;;5054317;28;20773;-68
2022/01/10 11:06:02;;;;;;;16.20;10.03;;;6.60;99.90;;;;;;5065920;28;20202;-68
2022/01/10 11:08:31;;;;;;;15.73;9.00;;;6.60;99.90;;;;;;5049134;28;20291;-72
2022/01/10 11:11:00;;;;;;;14.70;9.07;;;6.60;99.90;;;;;;5066256;28;20268;-69
2022/01/10 11:13:27;;;;;;;10.77;8.30;;;6.70;99.90;;;;;;5050191;28;20226;-67
2022/01/10 11:15:55;;;;;;;16.50;8.37;;;6.70;99.90;;;;;;5066073;28;20197;-67
2022/01/10 11:18:21;;;;;;;19.47;9.57;;;6.80;99.90;;;;;;5049836;28;20249;-66
2022/01/10 11:20:50;;;;;;;19.37;9.67;;;6.60;99.90;;;;;;5061551;28;20202;-66
2022/01/10 11:23:15;;;;;;;15.60;8.97;;;6.70;99.90;;;;;;5050969;28;20292;-66
2022/01/10 11:25:42;;;;;;;22.67;9.97;;;6.70;99.90;;;;;;5065172;28;20668;-66
2022/01/10 11:28:10;;;;;;;18.17;8.90;;;6.70;99.90;;;;;;5054147;28;20206;-67
2022/01/10 11:30:43;;;;;;;18.70;8.43;;;6.70;99.90;;;;;;5064374;28;20189;-66
2022/01/10 11:33:16;;;;;;;14.03;8.30;;;6.70;99.90;;;;;;5061941;28;20638;-67
2022/01/10 11:36:21;;;;;;;12.23;7.47;;;6.60;99.90;;;;;;5065226;28;20206;-67
2022/01/10 11:38:54;;;;;;;14.20;6.13;;;6.60;99.90;;;;;;5025706;28;20215;-66
2022/01/10 11:41:28;;;;;;;8.73;4.97;;;6.70;99.90;;;;;;5062899;28;20190;-66
2022/01/10 11:43:55;;;;;;;10.70;6.27;;;6.70;99.90;;;;;;5058584;28;20290;-66
2022/01/10 11:46:43;;;;;;;6.73;5.37;;;6.70;99.90;;;;;;5057184;28;20190;-66
2022/01/10 11:49:08;;;;;;;10.20;5.53;;;6.60;99.90;;;;;;5059849;28;20260;-69
2022/01/10 11:51:36;;;;;;;6.17;5.20;;;6.60;99.90;;;;;;5053692;28;20178;-67
2022/01/10 11:54:27;;;;;;;8.30;4.90;;;6.60;99.90;;;;;;5062820;28;20293;-67
2022/01/10 11:56:58;;;;;;;6.10;4.43;;;6.50;99.90;;;;;;5053448;28;20274;-67
2022/01/10 11:59:32;;;;;;;7.50;3.37;;;6.50;99.90;;;;;;5043538;28;20526;-66
2022/01/10 12:02:12;;;;;;;3.67;3.17;;;6.60;99.90;;;;;;5063432;28;20202;-67
2022/01/10 12:04:43;;;;;;;8.77;4.07;;;6.60;99.90;;;;;;5043554;28;20344;-66
2022/01/10 12:07:11;;;;;;;7.23;3.80;;;6.60;99.90;;;;;;5061755;28;20190;-66
2022/01/10 12:09:36;;;;;;;8.23;3.70;;;6.60;99.90;;;;;;5051919;28;20215;-68
2022/01/10 12:12:03;;;;;;;9.27;4.17;;;6.60;99.90;;;;;;5045154;28;20203;-67
2022/01/10 12:14:31;;;;;;;6.10;3.30;;;6.70;99.90;;;;;;5063665;28;20190;-69
2022/01/10 12:16:58;;;;;;;5.13;3.90;;;6.70;99.90;;;;;;5062010;28;20234;-71
2022/01/10 12:19:25;;;;;;;3.47;3.07;;;6.70;99.90;;;;;;5064087;28;20194;-68
2022/01/10 12:21:51;;;;;;;3.57;3.27;;;6.70;99.90;;;;;;5059748;28;20285;-68
2022/01/10 12:24:17;;;;;;;3.83;3.20;;;6.60;99.90;;;;;;5064303;28;20751;-71
2022/01/10 12:26:43;;;;;;;5.10;3.20;;;6.50;99.90;;;;;;5046330;28;20313;-68
2022/01/10 12:29:10;;;;;;;3.43;2.90;;;6.30;99.90;;;;;;5050292;28;20305;-69
2022/01/10 12:31:38;;;;;;;4.87;3.27;;;6.30;99.90;;;;;;5053410;28;20328;-68
2022/01/10 12:34:08;;;;;;;4.97;3.10;;;6.20;99.90;;;;;;5049451;28;20195;-68
2022/01/10 12:36:34;;;;;;;5.23;3.17;;;6.10;99.90;;;;;;5064304;28;20206;-68
2022/01/10 12:39:05;;;;;;;3.23;2.70;;;6.10;99.90;;;;;;5047119;28;20261;-69
2022/01/10 12:41:32;;;;;;;5.53;2.77;;;6.10;99.90;;;;;;5048537;28;20235;-68
2022/01/10 12:43:58;;;;;;;3.93;3.13;;;6.10;99.90;;;;;;5052085;28;20654;-69
2022/01/10 12:46:27;;;;;;;3.60;2.60;;;6.10;99.90;;;;;;5064027;28;20200;-68
2022/01/10 12:48:53;;;;;;;2.80;2.53;;;6.10;99.90;;;;;;5053580;28;20214;-68
2022/01/10 12:51:20;;;;;;;3.23;2.93;;;6.10;99.90;;;;;;5064677;28;20190;-69
2022/01/10 12:53:48;;;;;;;5.07;3.17;;;6.00;99.90;;;;;;5050280;28;20199;-69
2022/01/10 12:56:22;;;;;;;6.13;3.57;;;6.10;99.90;;;;;;5052779;28;20187;-69